Time;durP1;ratioP1;P1;durP2;ratioP2;P2;SDS_P1;SDS_P2;PMS_P1;PMS_P2;Temp;Humidity;BMP_temperature;BMP_pressure;BME280_temperature;BME280_humidity;BME280_pressure;Samples;Min_cycle;Max_cycle;Signal;HPM_P1;HPM_P2
2022/07/23 01:02:04;;;;;;;1.70;1.15;;;17.30;1.00;;;;;;6137883;23;20036;-92
2022/07/23 01:24:58;;;;;;;3.05;1.35;;;17.20;1.00;;;;;;6071065;23;20038;-93
2022/07/23 02:45:40;;;;;;;2.58;0.73;;;16.70;1.00;;;;;;6112149;23;20027;-93
2022/07/23 02:56:12;;;;;;;1.17;0.77;;;16.70;1.00;;;;;;6075348;23;20046;-94
2022/07/23 02:59:24;;;;;;;1.33;0.80;;;16.70;1.00;;;;;;6105749;23;20042;-91
2022/07/23 03:06:46;;;;;;;1.38;0.90;;;16.60;1.00;;;;;;6107321;23;20050;-90
2022/07/23 03:42:42;;;;;;;3.15;0.90;;;16.50;1.00;;;;;;6097539;23;20031;-93
2022/07/23 04:18:23;;;;;;;1.50;1.02;;;16.30;1.00;;;;;;6137468;23;20438;-90
2022/07/23 04:26:57;;;;;;;2.28;0.80;;;16.30;1.00;;;;;;6102802;23;20010;-91
2022/07/23 04:35:11;;;;;;;;;;;;;;;;;;;;;
2022/07/23 04:39:09;;;;;;;;;;;;;;;;;;;;;
2022/07/23 04:42:33;;;;;;;2.60;0.85;;;16.20;1.00;;;;;;6013307;23;20019;-96
2022/07/23 04:45:06;;;;;;;1.13;0.63;;;16.20;1.00;;;;;;5965714;23;20071;-93
2022/07/23 04:47:43;;;;;;;1.17;0.77;;;16.20;1.00;;;;;;6038897;23;20022;-92
2022/07/23 04:59:23;;;;;;;0.82;0.60;;;16.20;1.00;;;;;;6082826;23;20091;-89
2022/07/23 05:02:23;;;;;;;1.90;0.65;;;16.20;1.00;;;;;;6088837;23;20049;-90
2022/07/23 05:05:32;;;;;;;1.10;0.47;;;16.20;1.00;;;;;;6061049;23;20347;-90
2022/07/23 05:09:18;;;;;;;1.92;1.23;;;16.20;1.00;;;;;;5976843;24;20054;-92
2022/07/23 05:12:45;;;;;;;3.10;0.68;;;16.20;1.00;;;;;;5960282;24;20072;-92
2022/07/23 05:27:22;;;;;;;0.80;0.45;;;16.20;1.00;;;;;;6096997;23;20046;-91
2022/07/23 05:45:13;;;;;;;1.33;0.50;;;16.20;1.00;;;;;;6013554;23;20042;-90
2022/07/23 05:49:13;;;;;;;1.20;0.60;;;16.20;1.00;;;;;;6108944;23;20099;-91
2022/07/23 06:01:35;;;;;;;0.38;0.30;;;16.20;1.00;;;;;;5954842;24;20449;-92
2022/07/23 06:11:53;;;;;;;;;;;;;;;;;;;;;
2022/07/23 07:19:09;;;;;;;1.42;0.38;;;16.70;1.00;;;;;;6047661;23;20026;-93
2022/07/23 07:22:26;;;;;;;1.13;0.32;;;16.70;1.00;;;;;;5921664;24;20020;-93
2022/07/23 07:26:24;;;;;;;;;;;;;;;;;;;;;
2022/07/23 07:34:21;;;;;;;1.85;0.30;;;16.80;1.00;;;;;;5812272;24;20117;-91
2022/07/23 07:42:32;;;;;;;0.77;0.25;;;17.00;1.00;;;;;;5817659;24;20027;-95
2022/07/23 07:50:16;;;;;;;0.30;0.20;;;17.20;1.00;;;;;;5789159;24;20019;-93
2022/07/23 07:57:33;;;;;;;0.60;0.30;;;17.20;1.00;;;;;;5779542;24;20010;-94
2022/07/23 08:00:10;;;;;;;0.90;0.30;;;17.30;1.00;;;;;;5855744;24;20076;-92
2022/07/23 08:02:51;;;;;;;0.55;0.20;;;17.30;1.00;;;;;;5879524;24;20029;-91
2022/07/23 08:05:25;;;;;;;1.88;0.30;;;17.30;1.00;;;;;;5906263;24;20048;-90
2022/07/23 08:08:19;;;;;;;6.28;0.40;;;17.30;1.00;;;;;;5975750;23;20007;-90
2022/07/23 08:10:54;;;;;;;3.33;0.40;;;17.40;1.00;;;;;;6066751;23;20023;-90
2022/07/23 08:13:21;;;;;;;4.40;0.50;;;17.40;1.00;;;;;;6066544;23;20003;-90
2022/07/23 08:15:52;;;;;;;4.78;0.60;;;17.50;1.00;;;;;;6038421;23;20031;-91
2022/07/23 08:18:20;;;;;;;7.07;0.60;;;17.50;1.00;;;;;;6017590;23;20030;-90
2022/07/23 08:20:47;;;;;;;1.45;0.52;;;17.50;1.00;;;;;;6039186;23;20265;-90
2022/07/23 08:23:18;;;;;;;1.75;0.63;;;17.60;1.00;;;;;;6039069;23;20018;-91
2022/07/23 08:25:46;;;;;;;1.13;0.50;;;17.70;1.00;;;;;;6039295;23;20022;-92
2022/07/23 08:28:14;;;;;;;2.55;0.38;;;17.70;1.00;;;;;;6063264;23;20083;-89
2022/07/23 08:30:44;;;;;;;2.28;0.43;;;17.80;1.00;;;;;;6038991;23;20043;-89
2022/07/23 08:33:16;;;;;;;0.93;0.35;;;17.90;1.00;;;;;;6015922;23;20106;-90
2022/07/23 08:35:58;;;;;;;5.03;0.60;;;17.90;1.00;;;;;;6038987;23;20385;-91
2022/07/23 08:38:25;;;;;;;5.88;0.90;;;18.00;1.00;;;;;;6038875;23;20030;-91
2022/07/23 08:40:59;;;;;;;1.63;0.45;;;17.90;1.00;;;;;;6038866;23;20030;-90
2022/07/23 08:43:40;;;;;;;2.95;0.50;;;17.90;1.00;;;;;;6038640;23;20023;-92
2022/07/23 08:46:55;;;;;;;0.85;0.32;;;18.00;1.00;;;;;;6039183;23;20023;-92
2022/07/23 08:49:32;;;;;;;1.10;0.55;;;17.80;1.00;;;;;;6040451;23;20043;-92
2022/07/23 08:52:11;;;;;;;2.15;0.50;;;17.90;1.00;;;;;;6039126;23;20409;-90
2022/07/23 08:54:41;;;;;;;0.50;0.43;;;17.80;1.00;;;;;;6015094;23;20019;-91
2022/07/23 08:57:11;;;;;;;1.00;0.32;;;17.80;1.00;;;;;;6040017;23;20024;-91
2022/07/23 08:59:44;;;;;;;0.98;0.50;;;17.80;1.00;;;;;;6014995;23;20325;-91
2022/07/23 09:19:22;;;;;;;1.52;0.30;;;18.20;1.00;;;;;;6129632;23;20398;-93
2022/07/23 09:51:06;;;;;;;0.52;0.40;;;18.70;1.00;;;;;;6077397;23;20030;-93
2022/07/23 09:54:40;;;;;;;0.75;0.30;;;18.80;1.00;;;;;;6065402;23;20544;-91
2022/07/23 16:00:28;;;;;;;5.38;1.38;;;26.50;1.00;;;;;;6212997;22;20220;-91
2022/07/23 16:04:21;;;;;;;2.17;1.55;;;26.90;1.00;;;;;;6165650;23;20027;-93
2022/07/23 16:07:39;;;;;;;3.60;1.02;;;27.30;1.00;;;;;;6159080;23;20431;-92
2022/07/23 16:18:35;;;;;;;;;;;;;;;;;;;;;
2022/07/23 17:50:45;;;;;;;1.58;0.90;;;24.90;1.00;;;;;;6247291;23;20469;-88
2022/07/23 17:53:19;;;;;;;2.95;0.85;;;25.00;1.00;;;;;;6220671;23;20032;-88
2022/07/23 17:55:46;;;;;;;5.45;1.25;;;24.90;1.00;;;;;;6219430;23;20020;-87
2022/07/23 17:58:14;;;;;;;2.20;1.00;;;24.80;1.00;;;;;;6245738;23;20012;-88
2022/07/23 18:00:41;;;;;;;2.15;0.77;;;24.80;1.00;;;;;;6245874;23;20020;-89
2022/07/23 18:03:08;;;;;;;2.08;0.80;;;24.70;1.00;;;;;;6245586;23;20020;-88
2022/07/23 18:05:35;;;;;;;1.90;1.05;;;24.60;1.00;;;;;;6193743;23;20474;-89
2022/07/23 18:08:09;;;;;;;1.20;0.90;;;24.60;1.00;;;;;;6219292;23;20070;-90
2022/07/23 18:10:46;;;;;;;2.10;1.08;;;24.50;1.00;;;;;;6220926;23;20015;-89
2022/07/23 18:13:28;;;;;;;2.25;0.80;;;24.50;1.00;;;;;;6218767;23;20020;-89
2022/07/23 18:15:57;;;;;;;1.42;0.90;;;24.40;1.00;;;;;;6219656;23;20028;-89
2022/07/23 18:19:05;;;;;;;4.00;1.17;;;24.40;1.00;;;;;;6220675;23;20012;-92
2022/07/23 18:35:16;;;;;;;1.92;0.95;;;24.00;1.00;;;;;;6194952;22;20441;-90
2022/07/23 18:37:56;;;;;;;2.30;1.65;;;24.00;1.00;;;;;;6148825;23;20405;-93
2022/07/23 18:45:45;;;;;;;1.70;1.38;;;23.90;1.00;;;;;;6037406;23;20058;-92
2022/07/23 18:48:21;;;;;;;1.45;0.85;;;23.80;1.00;;;;;;6037527;23;20015;-91
2022/07/23 18:51:00;;;;;;;3.03;1.48;;;23.70;1.00;;;;;;6098949;23;20028;-89
2022/07/23 18:53:32;;;;;;;2.88;1.92;;;23.60;1.00;;;;;;6135629;23;20044;-90
2022/07/23 18:56:12;;;;;;;2.30;0.90;;;23.60;1.00;;;;;;6127240;23;20014;-92
2022/07/23 18:58:39;;;;;;;1.67;1.15;;;23.50;1.00;;;;;;6104982;23;20089;-91
2022/07/23 19:01:07;;;;;;;1.75;1.17;;;23.50;1.00;;;;;;6104677;23;20018;-91
2022/07/23 19:03:37;;;;;;;1.45;1.35;;;23.50;1.00;;;;;;6129797;23;20038;-90
2022/07/23 19:06:06;;;;;;;1.80;1.20;;;23.40;1.00;;;;;;6114177;23;20057;-90
2022/07/23 19:08:36;;;;;;;1.80;0.93;;;23.40;1.00;;;;;;6100162;23;20030;-91
2022/07/23 19:11:04;;;;;;;1.80;1.23;;;23.40;1.00;;;;;;6114173;23;20099;-88
2022/07/23 19:13:34;;;;;;;2.75;1.60;;;23.30;1.00;;;;;;6215370;23;20463;-89
2022/07/23 19:16:04;;;;;;;2.75;1.23;;;23.30;1.00;;;;;;6163675;23;20028;-88
2022/07/23 19:18:32;;;;;;;2.47;1.10;;;23.20;1.00;;;;;;6164542;23;20017;-88
